Time;durP1;ratioP1;P1;durP2;ratioP2;P2;SDS_P1;SDS_P2;PMS_P1;PMS_P2;Temp;Humidity;BMP_temperature;BMP_pressure;BME280_temperature;BME280_humidity;BME280_pressure;Samples;Min_cycle;Max_cycle;Signal;HPM_P1;HPM_P2
2022/10/02 00:02:23;;;;;;;6.40;2.22;;;15.00;97.90;;;;;;4957961;29;20033;-87
2022/10/02 00:05:07;;;;;;;7.95;2.00;;;15.00;97.90;;;;;;4957567;29;20172;-88
2022/10/02 00:07:54;;;;;;;8.55;2.42;;;15.00;97.90;;;;;;4958703;29;20375;-87
2022/10/02 00:10:29;;;;;;;7.15;2.22;;;15.10;97.90;;;;;;4959289;29;20367;-87
2022/10/02 00:13:00;;;;;;;5.15;1.92;;;15.10;97.90;;;;;;4960774;29;20035;-86
2022/10/02 00:15:30;;;;;;;8.38;1.90;;;15.10;97.80;;;;;;4962731;29;20027;-89
2022/10/02 00:18:01;;;;;;;8.55;2.15;;;15.00;97.80;;;;;;4963987;29;20451;-88
2022/10/02 00:21:12;;;;;;;5.00;1.70;;;15.00;97.90;;;;;;4963575;29;20032;-87
2022/10/02 00:23:48;;;;;;;8.82;2.25;;;15.10;98.00;;;;;;4940770;29;20047;-85
2022/10/02 00:26:16;;;;;;;8.82;2.05;;;15.10;97.90;;;;;;4964339;29;20034;-87
2022/10/02 00:29:08;;;;;;;7.38;2.03;;;15.10;97.80;;;;;;4948516;29;20028;-87
2022/10/02 00:31:50;;;;;;;5.30;1.92;;;15.20;97.80;;;;;;4947865;29;20144;-94
2022/10/02 00:34:47;;;;;;;4.63;1.75;;;15.20;97.70;;;;;;4963934;29;20028;-88
2022/10/02 00:37:28;;;;;;;4.30;1.05;;;15.10;97.70;;;;;;4961545;29;20480;-88
2022/10/02 00:40:00;;;;;;;3.22;1.17;;;15.10;97.70;;;;;;4951625;29;20082;-89
2022/10/02 00:42:47;;;;;;;4.97;1.42;;;15.00;97.60;;;;;;4975638;29;20038;-86
2022/10/02 00:45:41;;;;;;;4.72;1.45;;;15.00;97.60;;;;;;4958686;29;20031;-86
2022/10/02 00:48:39;;;;;;;4.10;1.10;;;14.90;97.60;;;;;;4975902;29;20019;-87
2022/10/02 00:51:27;;;;;;;3.63;1.25;;;14.90;97.60;;;;;;4924968;29;20025;-86
2022/10/02 00:54:14;;;;;;;3.25;1.20;;;14.80;97.60;;;;;;4979673;29;20027;-87
2022/10/02 00:56:54;;;;;;;4.53;1.35;;;14.80;97.50;;;;;;4956939;29;20030;-87
2022/10/02 00:59:49;;;;;;;3.70;1.10;;;14.80;97.50;;;;;;4980669;29;20050;-88
2022/10/02 01:02:46;;;;;;;4.78;1.30;;;14.80;97.50;;;;;;4966232;29;20278;-86
2022/10/02 01:05:12;;;;;;;5.38;1.48;;;14.80;97.50;;;;;;4964910;29;20042;-88
2022/10/02 01:07:44;;;;;;;4.93;1.45;;;14.80;97.50;;;;;;4961901;29;20027;-87
2022/10/02 01:10:12;;;;;;;5.95;1.58;;;14.80;97.40;;;;;;4957372;29;20118;-87
2022/10/02 01:12:39;;;;;;;4.10;1.13;;;14.80;97.50;;;;;;4962534;29;20090;-88
2022/10/02 01:15:20;;;;;;;5.80;2.13;;;14.80;97.80;;;;;;4961591;29;20027;-87
2022/10/02 01:17:47;;;;;;;6.70;2.30;;;14.80;97.50;;;;;;4962509;29;20031;-86
2022/10/02 01:20:33;;;;;;;5.35;2.38;;;14.80;97.60;;;;;;4943710;29;20031;-87
2022/10/02 01:23:26;;;;;;;5.32;2.10;;;14.80;97.60;;;;;;4930519;29;20027;-88
2022/10/02 01:25:51;;;;;;;10.15;3.08;;;14.80;97.70;;;;;;4950562;29;20023;-87
2022/10/02 01:28:17;;;;;;;9.85;2.45;;;14.80;97.60;;;;;;4945704;29;20042;-88
2022/10/02 01:30:47;;;;;;;9.45;3.22;;;14.70;97.80;;;;;;4912394;29;20062;-88
2022/10/02 01:33:14;;;;;;;11.68;3.67;;;14.70;97.80;;;;;;4961109;29;20039;-87
2022/10/02 01:35:41;;;;;;;13.50;3.97;;;14.70;97.90;;;;;;4943979;29;20476;-87
2022/10/02 01:38:11;;;;;;;8.55;3.90;;;14.70;97.90;;;;;;4943250;29;20130;-89
2022/10/02 01:40:39;;;;;;;10.48;3.75;;;14.70;98.10;;;;;;4943682;29;20080;-89
2022/10/02 01:43:08;;;;;;;10.35;4.13;;;14.60;98.10;;;;;;4944266;29;20475;-88
2022/10/02 01:45:43;;;;;;;7.85;3.63;;;14.70;98.20;;;;;;4943796;29;20499;-88
2022/10/02 01:48:28;;;;;;;12.88;3.92;;;14.70;98.20;;;;;;4944240;29;20087;-86
2022/10/02 01:51:34;;;;;;;11.73;3.97;;;14.70;98.30;;;;;;4944318;29;20027;-87
2022/10/02 01:54:37;;;;;;;9.68;4.25;;;14.60;98.40;;;;;;4946729;29;20032;-88
2022/10/02 01:57:16;;;;;;;10.15;3.88;;;14.70;98.50;;;;;;4925212;29;20480;-88
2022/10/02 01:59:47;;;;;;;10.77;3.67;;;14.70;98.40;;;;;;4944778;29;20082;-88
2022/10/02 02:02:22;;;;;;;12.13;4.18;;;14.70;98.50;;;;;;4961176;29;20034;-88
2022/10/02 02:04:59;;;;;;;10.98;3.78;;;14.80;98.50;;;;;;4960330;29;20024;-88
2022/10/02 02:07:33;;;;;;;11.30;4.28;;;14.80;98.50;;;;;;4942937;29;20023;-87
2022/10/02 02:10:08;;;;;;;14.48;5.13;;;14.90;98.50;;;;;;4960408;29;20023;-87
2022/10/02 02:12:49;;;;;;;10.25;4.43;;;14.90;98.50;;;;;;4960334;29;20031;-87
2022/10/02 02:15:32;;;;;;;13.85;4.30;;;15.00;98.50;;;;;;4961357;29;20531;-87
2022/10/02 02:18:33;;;;;;;12.68;4.53;;;15.10;98.50;;;;;;4943817;29;20428;-87
2022/10/02 02:21:07;;;;;;;11.95;4.55;;;15.10;98.50;;;;;;4926645;29;20046;-88
2022/10/02 02:23:36;;;;;;;13.13;4.75;;;15.20;98.40;;;;;;4943515;29;20031;-87
2022/10/02 02:26:07;;;;;;;10.55;4.40;;;15.20;98.40;;;;;;4943487;29;20020;-88
2022/10/02 02:28:41;;;;;;;12.75;4.53;;;15.20;98.30;;;;;;4942227;29;20024;-86
2022/10/02 02:31:08;;;;;;;13.80;4.55;;;15.20;98.20;;;;;;4927484;29;20094;-86
2022/10/02 02:33:45;;;;;;;11.75;4.47;;;15.30;98.20;;;;;;4959763;29;20070;-87
2022/10/02 02:36:18;;;;;;;11.88;4.78;;;15.30;98.20;;;;;;4942734;29;20028;-88
2022/10/02 02:39:03;;;;;;;11.70;3.90;;;15.20;98.10;;;;;;4960141;29;20379;-88
2022/10/02 02:41:36;;;;;;;14.50;4.30;;;15.30;98.20;;;;;;4960907;29;20066;-87
2022/10/02 02:44:31;;;;;;;11.75;4.10;;;15.20;98.10;;;;;;4952189;28;20026;-86
2022/10/02 02:47:02;;;;;;;12.20;3.67;;;15.20;98.10;;;;;;4960262;28;20026;-87
2022/10/02 02:49:48;;;;;;;12.10;4.28;;;15.30;98.00;;;;;;4981329;28;20035;-87
2022/10/02 02:52:21;;;;;;;11.57;3.80;;;15.20;98.00;;;;;;4981595;28;20099;-86
2022/10/02 02:54:56;;;;;;;10.57;4.00;;;15.20;98.00;;;;;;4975550;29;20078;-87
2022/10/02 02:57:31;;;;;;;8.70;3.70;;;15.10;98.20;;;;;;4943446;29;20016;-87
2022/10/02 03:00:01;;;;;;;8.20;2.95;;;15.10;98.10;;;;;;4943665;29;20035;-87
2022/10/02 03:02:27;;;;;;;10.18;3.30;;;15.10;98.20;;;;;;4959975;28;20405;-87
2022/10/02 03:04:52;;;;;;;11.93;3.40;;;15.10;98.10;;;;;;4927153;29;20042;-88
2022/10/02 03:07:19;;;;;;;14.48;3.88;;;15.10;98.20;;;;;;4927296;29;20042;-86
2022/10/02 03:10:12;;;;;;;10.70;3.13;;;15.00;98.20;;;;;;4926935;29;20056;-88
2022/10/02 03:12:46;;;;;;;11.45;3.67;;;15.00;98.20;;;;;;4958863;29;20047;-87
2022/10/02 03:15:29;;;;;;;13.32;3.70;;;15.00;98.20;;;;;;4942925;29;20031;-88
2022/10/02 03:18:41;;;;;;;9.82;3.28;;;15.00;98.20;;;;;;4959908;29;20051;-87
2022/10/02 03:21:22;;;;;;;12.05;3.35;;;15.00;98.20;;;;;;4847326;29;20037;-88
2022/10/02 03:24:04;;;;;;;11.75;3.53;;;15.00;98.20;;;;;;4934926;29;20466;-87
2022/10/02 03:26:45;;;;;;;10.35;3.40;;;15.00;98.20;;;;;;4941701;29;20038;-89
2022/10/02 03:29:14;;;;;;;;;;;15.00;98.20;;;;;;4959662;29;20031;-87
2022/10/02 03:31:40;;;;;;;15.40;3.67;;;15.00;98.20;;;;;;4941560;29;19918;-88
2022/10/02 03:34:07;;;;;;;15.85;3.90;;;15.00;98.10;;;;;;4926129;29;20475;-88
2022/10/02 03:36:33;;;;;;;13.07;3.47;;;14.90;98.20;;;;;;4958103;29;20031;-88
2022/10/02 03:39:02;;;;;;;11.07;3.47;;;14.90;98.20;;;;;;4926723;29;20120;-88
2022/10/02 03:41:27;;;;;;;11.95;3.60;;;14.90;98.30;;;;;;4941216;29;20043;-87
2022/10/02 03:43:55;;;;;;;11.32;3.13;;;14.90;98.30;;;;;;4925480;29;20027;-89
2022/10/02 03:46:20;;;;;;;13.68;4.22;;;14.90;98.40;;;;;;4941687;29;20032;-88
2022/10/02 03:48:46;;;;;;;12.00;3.28;;;14.90;98.30;;;;;;4942085;29;20460;-86
2022/10/02 03:51:12;;;;;;;14.80;3.95;;;14.90;98.30;;;;;;4958109;29;20031;-88
2022/10/02 03:53:39;;;;;;;11.27;3.80;;;14.90;98.20;;;;;;4925790;29;20039;-88
2022/10/02 03:56:35;;;;;;;13.85;3.50;;;15.00;98.20;;;;;;4941348;29;20023;-88
2022/10/02 03:59:07;;;;;;;10.85;3.22;;;14.90;98.20;;;;;;4940640;29;20035;-87
2022/10/02 04:01:39;;;;;;;10.48;2.83;;;15.00;98.20;;;;;;4942016;29;20031;-87
2022/10/02 04:04:20;;;;;;;12.65;3.70;;;15.00;98.20;;;;;;4942699;29;20031;-88
2022/10/02 04:07:05;;;;;;;13.35;3.47;;;15.00;98.10;;;;;;4957902;29;20027;-89
2022/10/02 04:09:50;;;;;;;8.20;3.13;;;15.00;98.00;;;;;;4925631;29;20035;-87
2022/10/02 04:12:33;;;;;;;14.43;3.50;;;14.90;98.10;;;;;;4941810;29;20093;-86
2022/10/02 04:15:01;;;;;;;11.38;3.40;;;14.80;98.20;;;;;;4940998;29;20055;-87
2022/10/02 04:17:54;;;;;;;11.25;3.58;;;14.70;98.20;;;;;;4941675;29;20031;-88
2022/10/02 04:20:27;;;;;;;14.30;3.92;;;14.70;98.30;;;;;;4941680;29;20062;-87
2022/10/02 04:23:00;;;;;;;10.85;3.10;;;14.70;98.40;;;;;;4958775;29;20031;-88
2022/10/02 04:25:36;;;;;;;12.52;4.07;;;14.70;98.30;;;;;;4942651;29;20027;-87
2022/10/02 04:28:06;;;;;;;12.23;3.85;;;14.60;98.50;;;;;;4947750;28;20007;-87
2022/10/02 04:30:32;;;;;;;13.35;4.00;;;14.60;98.50;;;;;;4979723;28;20015;-87
2022/10/02 04:33:13;;;;;;;14.10;4.10;;;14.60;98.60;;;;;;4947120;28;20026;-86
2022/10/02 04:35:47;;;;;;;12.13;3.95;;;14.60;98.70;;;;;;4962153;28;20023;-88
2022/10/02 04:38:22;;;;;;;13.98;3.90;;;14.60;98.70;;;;;;4976913;28;20035;-87
2022/10/02 04:41:18;;;;;;;15.02;4.35;;;14.60;98.60;;;;;;4941984;29;20047;-88
2022/10/02 04:44:00;;;;;;;14.68;3.92;;;14.60;98.70;;;;;;4941244;29;20432;-88
2022/10/02 04:46:47;;;;;;;14.43;4.20;;;14.60;98.70;;;;;;4941349;29;20514;-88
2022/10/02 04:49:12;;;;;;;14.57;4.28;;;14.60;98.70;;;;;;4942144;29;20099;-87
2022/10/02 04:51:54;;;;;;;18.55;4.60;;;14.60;98.70;;;;;;4941710;29;20134;-86
2022/10/02 04:54:40;;;;;;;9.45;3.30;;;14.70;98.70;;;;;;4958720;29;20034;-88
2022/10/02 04:57:31;;;;;;;14.10;4.13;;;14.70;98.70;;;;;;4958249;29;20102;-88
2022/10/02 05:00:19;;;;;;;13.90;3.75;;;14.70;98.70;;;;;;4942079;29;20122;-88
2022/10/02 05:03:09;;;;;;;13.40;3.85;;;14.70;98.60;;;;;;4946922;29;20038;-86
2022/10/02 05:06:14;;;;;;;10.30;3.63;;;14.80;98.50;;;;;;4947842;29;20126;-88
2022/10/02 05:09:02;;;;;;;12.88;3.47;;;14.70;98.50;;;;;;4943770;29;20278;-87
2022/10/02 05:11:46;;;;;;;14.85;4.00;;;14.70;98.50;;;;;;4943201;29;20432;-87
2022/10/02 05:14:33;;;;;;;11.95;4.10;;;14.70;98.50;;;;;;4941223;29;20480;-87
2022/10/02 05:17:44;;;;;;;10.65;3.72;;;14.70;98.40;;;;;;4957981;29;20023;-90
2022/10/02 05:20:45;;;;;;;11.77;3.53;;;14.70;98.60;;;;;;4957954;29;20031;-88
2022/10/02 05:23:37;;;;;;;14.05;4.10;;;14.70;98.60;;;;;;4941346;29;20379;-87
2022/10/02 05:26:36;;;;;;;16.83;3.67;;;14.70;98.60;;;;;;4902808;29;20032;-87
2022/10/02 05:29:05;;;;;;;14.80;4.05;;;14.70;98.70;;;;;;4943713;29;20043;-88
2022/10/02 05:32:06;;;;;;;12.95;4.05;;;14.70;98.70;;;;;;4946225;29;20031;-87
2022/10/02 05:34:43;;;;;;;;;;;14.70;98.70;;;;;;4950473;29;20082;-85
2022/10/02 05:37:45;;;;;;;12.20;3.92;;;14.70;98.70;;;;;;4966329;29;19907;-86
2022/10/02 05:40:26;;;;;;;16.00;9.10;;;14.60;98.70;;;;;;4962067;29;20079;-87
2022/10/02 05:43:10;;;;;;;12.25;5.55;;;14.60;98.70;;;;;;4945900;29;20027;-88
2022/10/02 05:45:58;;;;;;;13.52;5.38;;;14.60;98.80;;;;;;4945298;29;20102;-90
2022/10/02 05:49:01;;;;;;;14.15;4.05;;;14.60;98.80;;;;;;4945743;29;20383;-91
2022/10/02 05:52:01;;;;;;;13.57;3.97;;;14.60;98.80;;;;;;4897403;29;20031;-89
2022/10/02 05:54:40;;;;;;;9.43;3.28;;;14.60;98.80;;;;;;4881008;29;20032;-88
2022/10/02 05:57:28;;;;;;;13.55;3.22;;;14.70;98.80;;;;;;4945445;29;20027;-90
2022/10/02 06:00:12;;;;;;;9.98;3.30;;;14.60;98.70;;;;;;4945545;29;20031;-89
2022/10/02 06:03:08;;;;;;;10.52;2.97;;;14.60;98.80;;;;;;4946201;29;20484;-89
2022/10/02 06:05:57;;;;;;;10.20;2.70;;;14.60;98.80;;;;;;4914902;29;20039;-91
2022/10/02 06:08:59;;;;;;;10.10;3.28;;;14.70;98.80;;;;;;4946605;29;20020;-88
2022/10/02 06:11:51;;;;;;;12.52;5.20;;;14.60;98.90;;;;;;4933007;29;20039;-89
2022/10/02 06:14:21;;;;;;;13.45;4.18;;;14.60;99.00;;;;;;4965653;28;20031;-90
2022/10/02 06:17:19;;;;;;;10.57;3.80;;;14.60;99.00;;;;;;4965483;28;20015;-88
2022/10/02 06:20:13;;;;;;;11.43;3.78;;;14.70;99.10;;;;;;4956663;29;20020;-90
2022/10/02 06:22:46;;;;;;;10.30;3.38;;;14.70;99.10;;;;;;4961841;29;20035;-90
2022/10/02 06:25:20;;;;;;;11.23;3.10;;;14.80;99.10;;;;;;4944810;29;20039;-89
2022/10/02 06:27:53;;;;;;;12.32;3.40;;;14.80;99.10;;;;;;4945334;29;20023;-89
2022/10/02 06:30:19;;;;;;;10.20;2.85;;;14.90;99.10;;;;;;4962836;29;20023;-91
2022/10/02 06:32:47;;;;;;;9.45;3.05;;;14.90;99.10;;;;;;4944735;29;20057;-91
2022/10/02 06:35:17;;;;;;;11.18;2.70;;;15.00;99.10;;;;;;4963370;29;20027;-89
2022/10/02 06:38:00;;;;;;;9.88;3.20;;;15.00;99.10;;;;;;4945873;29;20062;-88
2022/10/02 06:40:38;;;;;;;11.65;3.55;;;15.00;99.10;;;;;;4962861;29;20178;-88
2022/10/02 06:43:39;;;;;;;8.32;2.40;;;15.10;99.00;;;;;;4946339;29;20035;-89
2022/10/02 06:46:27;;;;;;;6.90;2.83;;;15.20;99.00;;;;;;4947432;29;20031;-90
2022/10/02 06:49:02;;;;;;;9.70;2.95;;;15.30;98.90;;;;;;4966365;29;20027;-90
2022/10/02 06:52:19;;;;;;;10.75;3.13;;;15.30;98.80;;;;;;4967457;29;20077;-91
2022/10/02 06:55:12;;;;;;;11.77;3.17;;;15.40;98.70;;;;;;4926548;29;20130;-89
2022/10/02 06:57:52;;;;;;;10.43;3.15;;;15.40;98.70;;;;;;4944695;29;20029;-89
2022/10/02 07:00:21;;;;;;;9.57;2.67;;;15.40;98.70;;;;;;4945682;29;20143;-89
2022/10/02 07:02:53;;;;;;;8.90;3.00;;;15.40;98.70;;;;;;4961216;29;20038;-89
2022/10/02 07:05:52;;;;;;;7.22;2.15;;;15.50;98.80;;;;;;4945094;29;20043;-90
2022/10/02 07:08:41;;;;;;;9.70;2.78;;;15.50;98.70;;;;;;4944248;29;20020;-89
2022/10/02 07:11:27;;;;;;;7.82;2.30;;;15.50;98.60;;;;;;4942361;29;20019;-89
2022/10/02 07:14:14;;;;;;;9.05;2.38;;;15.60;98.70;;;;;;4941735;29;20498;-87
2022/10/02 07:17:06;;;;;;;7.28;2.40;;;15.60;98.70;;;;;;4959707;29;20027;-89
2022/10/02 07:19:56;;;;;;;8.68;2.67;;;15.60;98.70;;;;;;4926158;29;20043;-88
2022/10/02 07:22:27;;;;;;;8.43;2.65;;;15.60;98.70;;;;;;4943375;29;20423;-86
2022/10/02 07:24:57;;;;;;;10.85;2.85;;;15.60;98.80;;;;;;4943159;29;20062;-88
2022/10/02 07:27:25;;;;;;;7.72;3.58;;;15.60;98.80;;;;;;4960828;29;20027;-87
2022/10/02 07:30:10;;;;;;;11.40;5.28;;;15.60;98.80;;;;;;4943031;29;20129;-87
2022/10/02 07:32:50;;;;;;;13.48;4.28;;;15.60;98.90;;;;;;4942818;29;20427;-86
2022/10/02 07:35:35;;;;;;;8.20;3.47;;;15.60;98.90;;;;;;4942543;29;20032;-87
2022/10/02 07:38:41;;;;;;;11.73;2.67;;;15.60;99.10;;;;;;4944195;29;20047;-87
2022/10/02 07:41:19;;;;;;;9.23;2.80;;;15.70;99.40;;;;;;4961054;29;20062;-88
2022/10/02 07:44:16;;;;;;;8.38;2.38;;;15.70;99.10;;;;;;4943628;29;20030;-87
2022/10/02 07:47:28;;;;;;;9.68;2.63;;;15.80;99.20;;;;;;4949179;29;20140;-89
2022/10/02 07:50:18;;;;;;;9.30;2.60;;;15.80;99.10;;;;;;4865867;29;20050;-87
2022/10/02 07:53:05;;;;;;;10.32;3.00;;;15.90;99.20;;;;;;4947701;29;20039;-87
2022/10/02 07:55:37;;;;;;;10.30;2.55;;;15.90;99.20;;;;;;4959705;29;20030;-86
2022/10/02 07:58:13;;;;;;;9.98;2.97;;;15.90;99.20;;;;;;4970500;28;20059;-87
2022/10/02 08:00:51;;;;;;;8.10;2.88;;;15.90;99.20;;;;;;4963661;28;20008;-89
2022/10/02 08:03:58;;;;;;;7.65;2.30;;;16.00;99.20;;;;;;4979465;28;20043;-87
2022/10/02 08:06:25;;;;;;;9.32;2.88;;;16.10;99.10;;;;;;4952877;29;20030;-86
2022/10/02 08:09:25;;;;;;;7.88;2.72;;;16.10;99.10;;;;;;4938551;29;20023;-89
2022/10/02 08:12:21;;;;;;;9.90;3.35;;;16.10;99.20;;;;;;4945779;29;20047;-86
2022/10/02 08:14:51;;;;;;;13.43;3.42;;;16.10;99.20;;;;;;4946648;29;20047;-87
2022/10/02 08:17:35;;;;;;;9.52;2.60;;;16.20;99.20;;;;;;4947965;29;20114;-88
2022/10/02 08:20:23;;;;;;;9.73;3.47;;;16.20;99.20;;;;;;4945515;29;20380;-86
2022/10/02 08:22:54;;;;;;;9.98;3.50;;;16.30;99.20;;;;;;4942358;29;20539;-86
2022/10/02 08:25:33;;;;;;;8.43;3.65;;;16.30;99.10;;;;;;4940277;29;20445;-87
2022/10/02 08:28:19;;;;;;;9.07;3.05;;;16.40;99.10;;;;;;4925077;29;20075;-85
2022/10/02 08:30:46;;;;;;;10.07;3.10;;;16.40;99.10;;;;;;4957574;29;20380;-87
2022/10/02 08:33:19;;;;;;;5.53;2.63;;;16.50;99.20;;;;;;4941386;29;20042;-88
2022/10/02 08:36:15;;;;;;;9.57;2.60;;;16.50;99.40;;;;;;4959772;29;20031;-88
2022/10/02 08:38:56;;;;;;;8.10;2.33;;;16.50;99.10;;;;;;4942737;29;20023;-88
2022/10/02 08:41:58;;;;;;;8.88;2.92;;;16.50;99.10;;;;;;4960710;29;20047;-88
2022/10/02 08:44:45;;;;;;;8.45;2.85;;;16.60;99.00;;;;;;4942891;29;20039;-88
2022/10/02 08:47:28;;;;;;;8.02;2.38;;;16.60;99.00;;;;;;4943584;29;20037;-91
2022/10/02 08:49:56;;;;;;;13.32;2.97;;;16.70;99.00;;;;;;4943636;29;20451;-87
2022/10/02 08:52:50;;;;;;;7.82;2.30;;;16.70;98.90;;;;;;4941452;29;20139;-86
2022/10/02 08:55:53;;;;;;;10.02;2.70;;;16.70;99.00;;;;;;4957798;29;20365;-89
2022/10/02 08:58:42;;;;;;;13.45;6.35;;;16.70;98.90;;;;;;4959518;29;20106;-88
2022/10/02 09:01:55;;;;;;;11.85;4.35;;;16.70;99.00;;;;;;4962259;28;20030;-88
2022/10/02 09:04:43;;;;;;;8.52;3.00;;;16.80;99.00;;;;;;4946175;29;20043;-88
2022/10/02 09:07:29;;;;;;;8.27;2.75;;;16.80;98.90;;;;;;4917930;29;20372;-87
2022/10/02 09:10:25;;;;;;;7.63;2.30;;;16.90;98.80;;;;;;4945652;29;20027;-87
2022/10/02 09:13:21;;;;;;;10.93;2.92;;;16.80;98.80;;;;;;4914357;29;20047;-89
2022/10/02 09:16:15;;;;;;;8.82;2.60;;;16.90;98.80;;;;;;4945229;29;20114;-87
2022/10/02 09:19:10;;;;;;;9.23;2.58;;;16.90;98.80;;;;;;4962127;29;20023;-86
2022/10/02 09:22:21;;;;;;;10.70;2.50;;;17.00;98.80;;;;;;4950618;29;20036;-86
2022/10/02 09:25:08;;;;;;;9.95;2.47;;;17.00;98.70;;;;;;4953663;29;20050;-87
2022/10/02 09:28:07;;;;;;;10.13;2.55;;;17.00;98.60;;;;;;4944972;29;20038;-86
2022/10/02 09:30:51;;;;;;;10.25;3.10;;;17.10;98.50;;;;;;4946219;29;20027;-90
2022/10/02 09:33:35;;;;;;;8.65;2.70;;;17.20;98.50;;;;;;4946199;29;20035;-90
2022/10/02 09:36:38;;;;;;;6.25;2.42;;;17.20;98.50;;;;;;4946709;29;20031;-87
2022/10/02 09:39:28;;;;;;;8.15;2.53;;;17.20;98.40;;;;;;4944828;29;20059;-89
2022/10/02 09:42:09;;;;;;;6.95;2.20;;;17.30;98.30;;;;;;4962737;29;20040;-89
2022/10/02 09:45:13;;;;;;;8.27;2.22;;;17.40;98.30;;;;;;4947402;29;20384;-89
2022/10/02 09:48:00;;;;;;;6.45;2.28;;;17.40;98.20;;;;;;4981140;28;20008;-87
2022/10/02 09:50:53;;;;;;;7.80;2.47;;;17.40;98.10;;;;;;4966053;28;20016;-88
2022/10/02 09:53:49;;;;;;;10.38;2.60;;;17.40;98.10;;;;;;4965269;28;20035;-89
2022/10/02 09:56:48;;;;;;;7.53;2.22;;;17.50;98.10;;;;;;4981074;28;20063;-86
2022/10/02 09:59:42;;;;;;;7.45;2.35;;;17.50;97.80;;;;;;4953592;29;20015;-91
2022/10/02 10:02:26;;;;;;;7.13;1.95;;;17.50;97.80;;;;;;4970877;29;20035;-88
2022/10/02 10:05:16;;;;;;;6.68;2.30;;;17.60;97.80;;;;;;4945679;29;20023;-89
2022/10/02 10:08:12;;;;;;;7.90;2.10;;;17.60;97.80;;;;;;4964083;29;20387;-89
2022/10/02 10:10:59;;;;;;;8.82;2.65;;;17.70;97.70;;;;;;4944272;29;20278;-88
2022/10/02 10:13:46;;;;;;;6.57;2.30;;;17.70;97.70;;;;;;4944829;29;20039;-88
2022/10/02 10:16:41;;;;;;;7.85;2.33;;;17.70;97.60;;;;;;4945665;29;20027;-90
2022/10/02 10:19:46;;;;;;;7.55;2.30;;;17.80;97.60;;;;;;4959819;29;20023;-88
2022/10/02 10:22:21;;;;;;;8.70;1.95;;;17.90;97.40;;;;;;4959628;29;20033;-89
2022/10/02 10:24:46;;;;;;;9.57;2.53;;;17.90;97.30;;;;;;4942413;29;20063;-87
2022/10/02 10:27:12;;;;;;;6.82;2.05;;;18.00;97.30;;;;;;4942157;29;20058;-87
2022/10/02 10:30:18;;;;;;;7.70;2.05;;;18.10;97.10;;;;;;4941878;29;20034;-87
2022/10/02 10:32:47;;;;;;;5.30;1.63;;;18.10;96.80;;;;;;4959515;29;20031;-86
2022/10/02 10:35:29;;;;;;;7.43;2.05;;;18.00;96.80;;;;;;4960168;29;20024;-87
2022/10/02 10:41:30;;;;;;;9.35;2.22;;;17.90;96.00;;;;;;4960081;29;20066;-88
2022/10/02 10:44:17;;;;;;;8.23;2.00;;;17.80;95.50;;;;;;4945422;29;20050;-87
2022/10/02 10:47:19;;;;;;;7.20;1.85;;;17.70;95.50;;;;;;4958874;29;20051;-85
2022/10/02 10:50:06;;;;;;;6.72;2.13;;;17.60;95.40;;;;;;4960202;29;20074;-89
2022/10/02 10:53:11;;;;;;;6.13;1.77;;;17.60;95.50;;;;;;4944669;29;20039;-92
2022/10/02 10:56:06;;;;;;;7.25;1.85;;;17.70;95.50;;;;;;4960993;29;20019;-86
2022/10/02 10:59:03;;;;;;;7.22;1.83;;;17.70;95.50;;;;;;4943633;29;20523;-88
2022/10/02 11:02:07;;;;;;;7.20;2.08;;;17.70;95.30;;;;;;4942417;29;20081;-86
2022/10/02 11:05:14;;;;;;;8.15;1.90;;;17.70;95.10;;;;;;4942761;29;20050;-89
2022/10/02 11:08:13;;;;;;;8.48;1.95;;;17.70;94.70;;;;;;4944229;29;20033;-89
2022/10/02 11:10:44;;;;;;;6.47;1.70;;;17.70;94.70;;;;;;4959886;29;20050;-88
2022/10/02 11:13:36;;;;;;;7.78;1.90;;;17.70;94.70;;;;;;4941679;29;20043;-88
2022/10/02 11:16:16;;;;;;;8.20;1.80;;;17.80;94.50;;;;;;4922719;29;20035;-88
2022/10/02 11:19:09;;;;;;;9.18;2.25;;;17.80;94.60;;;;;;4944023;29;20118;-91
2022/10/02 11:22:15;;;;;;;6.93;2.08;;;17.80;94.40;;;;;;4947068;29;20054;-92
2022/10/02 11:25:18;;;;;;;7.65;2.17;;;17.80;94.60;;;;;;4949803;29;20028;-89
2022/10/02 11:28:21;;;;;;;5.70;1.65;;;17.90;94.60;;;;;;4953408;29;20023;-86
2022/10/02 11:31:09;;;;;;;6.65;2.00;;;18.00;94.50;;;;;;4951241;29;20058;-90
2022/10/02 11:33:47;;;;;;;7.47;3.47;;;18.00;94.50;;;;;;4949586;29;20039;-88
2022/10/02 11:36:13;;;;;;;14.05;5.85;;;18.10;94.40;;;;;;4963303;29;20079;-88
2022/10/02 11:39:04;;;;;;;9.32;3.78;;;18.20;94.40;;;;;;4975710;28;20014;-87
2022/10/02 11:42:00;;;;;;;5.95;2.40;;;18.20;94.20;;;;;;4960152;29;20060;-90
2022/10/02 11:44:50;;;;;;;6.45;1.88;;;18.20;94.00;;;;;;4953445;29;20042;-86
2022/10/02 11:47:49;;;;;;;7.05;1.88;;;18.20;94.00;;;;;;4960232;29;20373;-88
2022/10/02 11:50:43;;;;;;;5.97;1.60;;;18.20;93.60;;;;;;4946441;29;20028;-89
2022/10/02 11:53:28;;;;;;;5.10;1.55;;;18.10;93.60;;;;;;4941122;29;20039;-91
2022/10/02 11:56:20;;;;;;;7.78;1.90;;;18.10;93.60;;;;;;4941160;29;20020;-89
2022/10/02 11:59:17;;;;;;;6.30;1.92;;;18.10;93.60;;;;;;4941261;29;20051;-91
2022/10/02 12:01:46;;;;;;;5.68;1.92;;;18.10;93.60;;;;;;4941660;29;20023;-90
2022/10/02 12:04:28;;;;;;;7.40;2.05;;;18.20;93.70;;;;;;4940801;29;20051;-90
2022/10/02 12:07:21;;;;;;;5.60;1.65;;;18.30;93.70;;;;;;4939487;29;20027;-88
2022/10/02 12:10:38;;;;;;;6.75;1.90;;;18.30;93.60;;;;;;4938877;29;20024;-87
2022/10/02 12:13:30;;;;;;;8.30;2.20;;;18.30;93.50;;;;;;4939454;29;20036;-88
2022/10/02 12:16:20;;;;;;;7.07;2.00;;;18.30;93.20;;;;;;4939402;29;20031;-91
2022/10/02 12:19:24;;;;;;;5.68;1.77;;;18.30;93.20;;;;;;4938425;29;20061;-89
2022/10/02 12:28:49;;;;;;;6.72;1.80;;;18.30;93.30;;;;;;4940010;29;20054;-88
2022/10/02 12:31:36;;;;;;;7.15;1.88;;;18.30;93.40;;;;;;4940271;29;20035;-89
2022/10/02 12:34:37;;;;;;;4.03;1.40;;;18.10;93.40;;;;;;4939705;29;20480;-91
2022/10/02 12:37:16;;;;;;;5.32;1.60;;;18.10;93.40;;;;;;4939114;29;20063;-91
2022/10/02 12:40:30;;;;;;;8.45;1.88;;;18.00;93.30;;;;;;4941564;29;20059;-91
2022/10/02 12:43:16;;;;;;;6.82;2.35;;;18.00;93.10;;;;;;4944233;29;20058;-89
2022/10/02 12:46:00;;;;;;;7.63;2.33;;;18.00;93.20;;;;;;4946075;29;20035;-89
2022/10/02 12:48:48;;;;;;;8.25;2.25;;;18.10;93.30;;;;;;4943505;29;20031;-89
2022/10/02 12:51:46;;;;;;;6.32;1.90;;;18.20;92.90;;;;;;4959478;29;20028;-88
2022/10/02 12:54:18;;;;;;;6.45;1.35;;;18.20;92.70;;;;;;4891671;29;20070;-92
2022/10/02 12:57:12;;;;;;;;;;;;;;;;;;;;;
2022/10/02 12:59:49;;;;;;;6.90;1.67;;;18.30;92.40;;;;;;4960127;29;20102;-88
2022/10/02 13:02:30;;;;;;;5.32;1.50;;;18.30;92.20;;;;;;4958871;29;20023;-88
2022/10/02 13:05:44;;;;;;;5.60;1.83;;;18.20;91.50;;;;;;4943571;29;20031;-90
2022/10/02 13:08:31;;;;;;;8.10;1.85;;;18.20;90.70;;;;;;4943164;29;20118;-89
2022/10/02 13:11:25;;;;;;;7.63;1.95;;;18.20;90.60;;;;;;4941949;29;20032;-90
2022/10/02 13:14:11;;;;;;;6.82;1.95;;;18.10;90.90;;;;;;4940628;29;20036;-88
2022/10/02 13:16:47;;;;;;;6.13;2.10;;;18.10;91.00;;;;;;4941240;29;20034;-89
2022/10/02 13:19:24;;;;;;;7.43;2.00;;;18.10;90.90;;;;;;4944399;29;20110;-92
2022/10/02 13:22:13;;;;;;;7.15;2.08;;;18.10;90.50;;;;;;4942566;29;20031;-89
2022/10/02 13:24:58;;;;;;;8.70;1.75;;;18.10;90.70;;;;;;4944986;29;20028;-88
2022/10/02 13:27:38;;;;;;;7.90;2.05;;;18.10;90.80;;;;;;4968068;29;20007;-88
2022/10/02 13:30:19;;;;;;;7.60;1.92;;;18.00;90.90;;;;;;4962356;28;20031;-87
2022/10/02 13:33:10;;;;;;;7.63;1.90;;;18.00;91.10;;;;;;4979182;28;20034;-87
2022/10/02 13:35:38;;;;;;;7.15;1.90;;;17.90;91.00;;;;;;4978625;28;20082;-90
2022/10/02 13:38:18;;;;;;;4.95;1.77;;;18.00;91.00;;;;;;4961971;28;20023;-88
2022/10/02 13:41:02;;;;;;;10.13;1.80;;;18.10;90.70;;;;;;4957247;29;20067;-88
2022/10/02 13:43:56;;;;;;;7.05;1.55;;;18.10;90.80;;;;;;4939481;29;20601;-90
2022/10/02 13:46:45;;;;;;;7.28;1.73;;;18.20;90.90;;;;;;4939730;29;20106;-89
2022/10/02 13:49:36;;;;;;;8.27;1.90;;;18.30;90.80;;;;;;4941065;29;20067;-87
2022/10/02 13:52:21;;;;;;;6.20;2.15;;;18.40;90.90;;;;;;4940295;29;20473;-87
2022/10/02 13:55:24;;;;;;;7.85;1.77;;;18.50;90.90;;;;;;4941058;29;20020;-87
2022/10/02 13:57:56;;;;;;;8.05;2.10;;;18.50;90.60;;;;;;4940762;29;20032;-88
2022/10/02 14:00:37;;;;;;;4.80;1.58;;;18.50;90.20;;;;;;4942259;29;20488;-89
2022/10/02 14:03:53;;;;;;;3.85;1.50;;;18.50;89.40;;;;;;4940967;29;20077;-86
2022/10/02 14:06:44;;;;;;;4.25;1.25;;;18.50;89.60;;;;;;4903983;29;20035;-88
2022/10/02 14:09:21;;;;;;;5.22;1.40;;;18.50;90.00;;;;;;4938915;29;20043;-88
2022/10/02 14:12:19;;;;;;;7.47;1.50;;;18.50;90.10;;;;;;4940246;29;20027;-89
2022/10/02 14:15:15;;;;;;;7.88;1.92;;;18.50;90.20;;;;;;4940567;29;20023;-92
2022/10/02 14:18:18;;;;;;;5.57;1.70;;;18.50;90.50;;;;;;4941096;29;20079;-93
2022/10/02 14:21:09;;;;;;;5.47;1.60;;;18.50;90.50;;;;;;4940771;29;20059;-88
2022/10/02 14:24:05;;;;;;;8.43;1.98;;;18.50;90.80;;;;;;4940768;29;20444;-87
2022/10/02 14:26:51;;;;;;;4.13;1.50;;;18.50;90.80;;;;;;4940848;29;20039;-90